createdAt,value
2018-09-08T00:02:00.723Z,9.37
2018-09-08T00:04:29.300Z,9.67
2018-09-08T00:07:02.952Z,9.50
2018-09-08T00:09:31.572Z,9.33
2018-09-08T00:12:00.127Z,9.97
2018-09-08T00:14:28.697Z,9.43
2018-09-08T00:17:02.577Z,8.73
2018-09-08T00:19:36.318Z,9.30
2018-09-08T00:22:10.005Z,8.63
2018-09-08T00:24:43.692Z,9.00
2018-09-08T00:27:11.368Z,8.93
2018-09-08T00:29:47.023Z,9.07
2018-09-08T00:32:15.627Z,8.70
2018-09-08T00:34:44.137Z,9.23
2018-09-08T00:37:12.707Z,8.47
2018-09-08T00:39:43.030Z,9.47
2018-09-08T00:42:12.133Z,8.73
2018-09-08T00:44:40.702Z,9.03
2018-09-08T00:47:09.332Z,8.40
2018-09-08T00:49:37.931Z,9.10
2018-09-08T00:52:06.470Z,9.20
2018-09-08T00:54:34.980Z,9.37
2018-09-08T00:57:03.514Z,9.43
2018-09-08T00:59:32.218Z,9.10
2018-09-08T01:02:00.734Z,8.87
2018-09-08T01:04:29.283Z,8.57
2018-09-08T01:06:57.824Z,9.33
2018-09-08T01:09:26.441Z,8.53
2018-09-08T01:11:54.963Z,8.63
2018-09-08T01:14:23.510Z,8.27
2018-09-08T01:16:52.024Z,8.33
2018-09-08T01:19:20.598Z,8.47
2018-09-08T01:21:49.149Z,8.77
2018-09-08T01:24:17.673Z,9.03
2018-09-08T01:26:46.254Z,8.57
2018-09-08T01:29:14.743Z,9.03
2018-09-08T01:31:43.263Z,8.20
2018-09-08T01:34:11.811Z,8.37
2018-09-08T01:36:40.338Z,7.50
2018-09-08T01:39:08.998Z,8.77
2018-09-08T01:41:37.547Z,8.70
2018-09-08T01:44:06.105Z,9.30
2018-09-08T01:46:34.678Z,8.00
2018-09-08T01:49:03.205Z,8.17
2018-09-08T01:51:31.819Z,8.67
2018-09-08T01:54:00.409Z,8.43
2018-09-08T01:56:28.906Z,8.70
2018-09-08T01:58:57.458Z,7.83
2018-09-08T02:01:25.987Z,8.10
2018-09-08T02:03:54.535Z,8.03
2018-09-08T02:06:23.088Z,8.13
2018-09-08T02:08:51.607Z,7.87
2018-09-08T02:11:20.208Z,8.57
2018-09-08T02:13:48.809Z,7.87
2018-09-08T02:16:17.370Z,8.23
2018-09-08T02:18:45.931Z,8.30
2018-09-08T02:21:14.508Z,8.40
2018-09-08T02:23:43.112Z,8.67
2018-09-08T02:26:11.702Z,7.97
2018-09-08T02:28:40.238Z,7.57
2018-09-08T02:31:08.779Z,8.10
2018-09-08T02:33:37.425Z,8.10
2018-09-08T02:36:05.979Z,8.50
2018-09-08T02:38:34.567Z,7.83
2018-09-08T02:41:03.166Z,7.83
2018-09-08T02:43:31.746Z,8.57
2018-09-08T02:46:00.307Z,8.50
2018-09-08T02:48:28.870Z,7.17
2018-09-08T02:50:56.234Z,8.07
2018-09-08T02:53:23.577Z,6.90
2018-09-08T02:55:50.922Z,7.60
2018-09-08T02:58:18.271Z,7.43
2018-09-08T03:00:45.606Z,7.40
2018-09-08T03:03:12.904Z,6.70
2018-09-08T03:05:40.207Z,7.70
2018-09-08T03:08:08.792Z,7.60
2018-09-08T03:10:36.138Z,7.17
2018-09-08T03:13:03.442Z,7.73
2018-09-08T03:15:30.867Z,7.80
2018-09-08T03:17:58.159Z,7.70
2018-09-08T03:20:25.520Z,7.50
2018-09-08T03:22:52.815Z,7.80
2018-09-08T03:25:20.135Z,7.37
2018-09-08T03:27:47.469Z,7.53
2018-09-08T03:30:15.794Z,8.30
2018-09-08T03:32:43.074Z,7.73
2018-09-08T03:35:10.468Z,7.50
2018-09-08T03:37:37.817Z,7.20
2018-09-08T03:40:05.153Z,7.37
2018-09-08T03:42:32.460Z,7.40
2018-09-08T03:44:59.789Z,7.07
2018-09-08T03:47:27.091Z,6.97
2018-09-08T03:49:54.382Z,7.43
2018-09-08T03:52:21.699Z,7.40
2018-09-08T03:54:49.125Z,7.23
2018-09-08T03:57:16.424Z,7.17
2018-09-08T03:59:43.754Z,7.77
2018-09-08T04:02:11.111Z,7.23
2018-09-08T04:04:39.627Z,7.43
2018-09-08T04:07:08.179Z,7.57
2018-09-08T04:09:37.304Z,7.17
2018-09-08T04:12:05.839Z,6.53
2018-09-08T04:14:34.407Z,6.97
2018-09-08T04:17:02.936Z,7.00
2018-09-08T04:19:31.495Z,7.30
2018-09-08T04:21:59.996Z,7.13
2018-09-08T04:24:28.522Z,7.10
2018-09-08T04:26:57.034Z,7.07
2018-09-08T04:29:25.562Z,7.50
2018-09-08T04:31:54.106Z,7.00
2018-09-08T04:34:22.651Z,7.13
2018-09-08T04:36:51.379Z,6.87
2018-09-08T04:39:19.960Z,7.27
2018-09-08T04:41:48.568Z,6.70
2018-09-08T04:44:17.152Z,6.73
2018-09-08T04:46:45.664Z,6.97
2018-09-08T04:49:14.289Z,6.70
2018-09-08T04:51:42.857Z,6.67
2018-09-08T04:54:11.418Z,6.87
2018-09-08T04:56:39.951Z,6.67
2018-09-08T04:59:08.490Z,6.63
2018-09-08T05:01:37.042Z,6.93
2018-09-08T05:04:05.625Z,6.77
2018-09-08T05:06:34.107Z,6.93
2018-09-08T05:09:02.763Z,7.07
2018-09-08T05:11:31.348Z,6.77
2018-09-08T05:13:59.948Z,6.47
2018-09-08T05:16:28.538Z,6.10
2018-09-08T05:18:57.119Z,6.83
2018-09-08T05:21:25.631Z,7.10
2018-09-08T05:23:54.190Z,6.70
2018-09-08T05:26:22.785Z,6.50
2018-09-08T05:28:51.607Z,7.40
2018-09-08T05:31:20.152Z,6.80
2018-09-08T05:33:48.659Z,6.97
2018-09-08T05:36:17.222Z,6.40
2018-09-08T05:38:45.712Z,6.20
2018-09-08T05:41:14.227Z,6.37
2018-09-08T05:43:42.846Z,5.90
2018-09-08T05:46:12.091Z,6.50
2018-09-08T05:48:40.796Z,6.03
2018-09-08T05:51:09.362Z,6.70
2018-09-08T05:53:37.937Z,6.07
2018-09-08T05:56:06.611Z,5.90
2018-09-08T05:58:35.280Z,5.67
2018-09-08T06:01:03.928Z,5.87
2018-09-08T06:03:32.535Z,5.57
2018-09-08T06:06:01.144Z,5.80
2018-09-08T06:08:29.764Z,5.50
2018-09-08T06:10:58.430Z,5.47
2018-09-08T06:13:27.017Z,5.10
2018-09-08T06:15:56.034Z,6.00
2018-09-08T06:18:24.601Z,5.60
2018-09-08T06:20:53.113Z,5.73
2018-09-08T06:23:21.875Z,5.47
2018-09-08T06:25:50.646Z,5.40
2018-09-08T06:28:19.655Z,5.03
2018-09-08T06:30:48.334Z,4.67
2018-09-08T06:33:17.029Z,5.17
2018-09-08T06:35:45.836Z,5.67
2018-09-08T06:38:14.648Z,5.10
2018-09-08T06:40:43.272Z,5.40
2018-09-08T06:43:11.898Z,5.10
2018-09-08T06:45:40.539Z,5.40
2018-09-08T06:48:09.207Z,4.70
2018-09-08T06:50:37.717Z,5.23
2018-09-08T06:53:06.588Z,5.60
2018-09-08T06:55:35.255Z,5.27
2018-09-08T06:58:03.766Z,5.30
2018-09-08T07:00:32.225Z,5.67
2018-09-08T07:03:00.689Z,5.37
2018-09-08T07:05:29.191Z,4.97
2018-09-08T07:07:57.669Z,5.13
2018-09-08T07:10:26.191Z,5.13
2018-09-08T07:12:54.683Z,4.93
2018-09-08T07:15:23.167Z,4.93
2018-09-08T07:17:52.168Z,5.07
2018-09-08T07:20:20.646Z,4.50
2018-09-08T07:22:49.117Z,5.33
2018-09-08T07:25:17.595Z,4.97
2018-09-08T07:27:46.131Z,5.10
2018-09-08T07:30:14.618Z,5.20
2018-09-08T07:32:43.090Z,5.30
2018-09-08T07:35:11.562Z,4.90
2018-09-08T07:37:40.198Z,5.20
2018-09-08T07:40:08.760Z,4.63
2018-09-08T07:42:37.234Z,4.77
2018-09-08T07:45:05.737Z,4.80
2018-09-08T07:47:34.217Z,5.20
2018-09-08T07:50:02.688Z,5.13
2018-09-08T07:52:31.178Z,4.53
2018-09-08T07:54:59.651Z,5.23
2018-09-08T07:57:28.128Z,5.03
2018-09-08T07:59:56.601Z,4.70
2018-09-08T08:02:25.111Z,4.87
2018-09-08T08:04:53.929Z,5.37
2018-09-08T08:07:22.402Z,5.27
2018-09-08T08:09:50.883Z,5.10
2018-09-08T08:12:19.368Z,4.83
2018-09-08T08:14:47.838Z,5.03
2018-09-08T08:17:16.315Z,4.93
2018-09-08T08:19:44.819Z,4.43
2018-09-08T08:22:13.286Z,5.13
2018-09-08T08:24:41.779Z,4.70
2018-09-08T08:27:10.268Z,5.23
2018-09-08T08:29:38.733Z,4.87
2018-09-08T08:32:07.298Z,5.17
2018-09-08T08:34:36.515Z,4.63
2018-09-08T08:37:05.096Z,4.80
2018-09-08T08:39:33.718Z,4.63
2018-09-08T08:42:02.303Z,4.70
2018-09-08T08:44:30.840Z,4.33
2018-09-08T08:46:59.523Z,4.80
2018-09-08T08:49:28.146Z,4.33
2018-09-08T08:52:07.993Z,4.33
2018-09-08T08:54:44.686Z,4.70
2018-09-08T08:57:13.456Z,4.40
2018-09-08T08:59:42.169Z,4.60
2018-09-08T09:02:10.832Z,4.57
2018-09-08T09:04:39.666Z,4.80
2018-09-08T09:07:09.085Z,4.23
2018-09-08T09:09:37.640Z,4.30
2018-09-08T09:12:06.170Z,4.63
2018-09-08T09:14:35.046Z,4.37
2018-09-08T09:17:03.229Z,3.70
2018-09-08T09:19:43.824Z,5.00
2018-09-08T09:22:24.999Z,4.60
2018-09-08T09:25:01.689Z,4.43
2018-09-08T09:27:32.272Z,3.80
2018-09-08T09:30:01.207Z,3.93
2018-09-08T09:32:29.811Z,4.30
2018-09-08T09:34:58.387Z,4.20
2018-09-08T09:37:27.097Z,4.10
2018-09-08T09:39:56.506Z,3.87
2018-09-08T09:42:25.113Z,4.50
2018-09-08T09:44:54.275Z,4.07
2018-09-08T09:47:22.888Z,4.00
2018-09-08T09:49:51.482Z,4.07
2018-09-08T09:52:20.092Z,4.13
2018-09-08T09:54:48.669Z,3.97
2018-09-08T09:57:17.198Z,4.57
2018-09-08T09:59:45.750Z,4.23
2018-09-08T10:02:45.540Z,4.13
2018-09-08T10:05:17.744Z,4.40
2018-09-08T10:07:46.519Z,3.90
2018-09-08T10:10:16.335Z,5.13
2018-09-08T10:12:44.866Z,4.20
2018-09-08T10:15:13.452Z,3.90
2018-09-08T10:17:42.894Z,4.10
2018-09-08T10:20:13.505Z,4.57
2018-09-08T10:22:42.107Z,4.00
2018-09-08T10:25:12.750Z,4.03
2018-09-08T10:27:41.720Z,3.53
2018-09-08T10:30:10.735Z,3.93
2018-09-08T10:32:39.514Z,4.07
2018-09-08T10:35:08.256Z,3.63
2018-09-08T10:37:36.827Z,3.80
2018-09-08T10:40:05.535Z,3.70
2018-09-08T10:42:34.191Z,3.40
2018-09-08T10:45:02.762Z,3.70
2018-09-08T10:47:31.407Z,3.83
2018-09-08T10:50:00.030Z,3.97
2018-09-08T10:52:31.493Z,3.77
2018-09-08T10:55:00.070Z,3.90
2018-09-08T10:57:28.622Z,3.10
2018-09-08T10:59:57.428Z,3.40
2018-09-08T11:02:26.055Z,4.00
2018-09-08T11:04:54.511Z,3.60
2018-09-08T11:07:23.044Z,3.37
2018-09-08T11:09:51.553Z,3.43
2018-09-08T11:12:20.650Z,3.43
2018-09-08T11:14:49.191Z,3.27
2018-09-08T11:17:17.729Z,3.57
2018-09-08T11:19:46.347Z,3.70
2018-09-08T11:22:15.357Z,3.13
2018-09-08T11:24:43.911Z,3.47
2018-09-08T11:27:12.439Z,3.73
2018-09-08T11:29:41.111Z,3.63
2018-09-08T11:32:09.791Z,3.53
2018-09-08T11:34:38.367Z,3.47
2018-09-08T11:37:06.880Z,3.40
2018-09-08T11:39:35.477Z,2.93
2018-09-08T11:42:04.016Z,3.47
2018-09-08T11:44:32.552Z,3.13
2018-09-08T11:47:01.170Z,3.20
2018-09-08T11:49:29.726Z,3.30
2018-09-08T11:51:58.315Z,3.60
2018-09-08T11:54:26.843Z,3.33
2018-09-08T11:56:55.648Z,3.30
2018-09-08T11:59:24.975Z,3.43
2018-09-08T12:01:53.573Z,3.53
2018-09-08T12:04:22.109Z,3.30
2018-09-08T12:06:50.744Z,3.20
2018-09-08T12:09:19.268Z,3.20
2018-09-08T12:11:47.870Z,3.23
2018-09-08T12:14:16.481Z,3.20
2018-09-08T12:16:45.040Z,3.50
2018-09-08T12:19:13.718Z,3.47
2018-09-08T12:21:42.276Z,3.40
2018-09-08T12:24:10.846Z,3.17
2018-09-08T12:26:39.484Z,3.20
2018-09-08T12:29:08.660Z,3.07
2018-09-08T12:31:37.253Z,3.00
2018-09-08T12:34:06.392Z,3.23
2018-09-08T12:36:35.072Z,3.13
2018-09-08T12:39:04.875Z,3.17
2018-09-08T12:41:33.480Z,3.30
2018-09-08T12:44:03.230Z,3.30
2018-09-08T12:46:31.936Z,3.60
2018-09-08T12:49:00.685Z,3.33
2018-09-08T12:51:29.484Z,3.33
2018-09-08T12:53:59.763Z,3.20
2018-09-08T12:56:35.717Z,3.47
2018-09-08T12:59:04.335Z,3.13
2018-09-08T13:01:33.072Z,3.30
2018-09-08T13:04:01.851Z,3.87
2018-09-08T13:06:30.533Z,3.60
2018-09-08T13:08:59.142Z,4.10
2018-09-08T13:11:27.912Z,3.47
2018-09-08T13:13:56.490Z,3.60
2018-09-08T13:16:25.213Z,3.87
2018-09-08T13:18:53.859Z,3.80
2018-09-08T13:21:22.656Z,3.50
2018-09-08T13:23:51.360Z,3.57
2018-09-08T13:26:19.984Z,3.20
2018-09-08T13:28:48.619Z,3.27
2018-09-08T13:31:17.230Z,3.47
2018-09-08T13:33:45.794Z,3.30
2018-09-08T13:36:14.590Z,4.00
2018-09-08T13:38:43.144Z,3.90
2018-09-08T13:41:11.938Z,3.60
2018-09-08T13:43:40.638Z,3.70
2018-09-08T13:46:09.147Z,3.73
2018-09-08T13:48:37.689Z,3.80
2018-09-08T13:51:06.164Z,4.23
2018-09-08T13:53:34.691Z,4.33
2018-09-08T13:56:03.181Z,3.83
2018-09-08T13:58:31.652Z,4.10
2018-09-08T14:01:00.132Z,3.93
2018-09-08T14:03:28.621Z,3.93
2018-09-08T14:05:57.089Z,3.90
2018-09-08T14:08:25.598Z,4.07
2018-09-08T14:10:54.103Z,4.20
2018-09-08T14:13:22.584Z,3.73
2018-09-08T14:15:51.086Z,3.80
2018-09-08T14:18:19.582Z,3.80
2018-09-08T14:20:48.067Z,3.60
2018-09-08T14:23:16.561Z,3.53
2018-09-08T14:25:45.068Z,3.70
2018-09-08T14:28:13.554Z,3.90
2018-09-08T14:30:42.034Z,3.47
2018-09-08T14:33:10.626Z,3.47
2018-09-08T14:35:39.133Z,3.87
2018-09-08T14:38:07.628Z,4.07
2018-09-08T14:40:36.104Z,3.70
2018-09-08T14:43:04.594Z,3.80
2018-09-08T14:45:33.096Z,3.67
2018-09-08T14:48:01.576Z,3.97
2018-09-08T14:50:30.056Z,4.10
2018-09-08T14:52:58.601Z,3.70
2018-09-08T14:55:27.096Z,5.33
2018-09-08T14:57:55.590Z,4.30
2018-09-08T15:00:24.102Z,4.10
2018-09-08T15:02:52.848Z,4.20
2018-09-08T15:05:21.525Z,4.20
2018-09-08T15:07:50.246Z,3.90
2018-09-08T15:10:18.792Z,3.60
2018-09-08T15:12:47.340Z,3.90
2018-09-08T15:15:15.818Z,3.93
2018-09-08T15:17:44.326Z,4.20
2018-09-08T15:20:12.887Z,4.03
2018-09-08T15:22:41.428Z,3.87
2018-09-08T15:25:09.992Z,4.17
2018-09-08T15:27:38.673Z,4.00
2018-09-08T15:30:10.512Z,4.00
2018-09-08T15:32:39.049Z,4.13
2018-09-08T15:35:07.631Z,4.10
2018-09-08T15:37:36.202Z,3.37
2018-09-08T15:40:04.757Z,3.50
2018-09-08T15:42:33.308Z,3.77
2018-09-08T15:45:01.842Z,3.90
2018-09-08T15:47:30.356Z,4.33
2018-09-08T15:49:58.881Z,4.03
2018-09-08T15:52:27.491Z,4.37
2018-09-08T15:54:56.012Z,3.97
2018-09-08T15:57:24.596Z,3.53
2018-09-08T15:59:53.183Z,4.07
2018-09-08T16:02:21.811Z,3.63
2018-09-08T16:04:50.347Z,3.73
2018-09-08T16:07:18.878Z,4.10
2018-09-08T16:09:47.465Z,3.70
2018-09-08T16:12:16.196Z,4.13
2018-09-08T16:14:44.719Z,4.20
2018-09-08T16:17:13.207Z,3.77
2018-09-08T16:19:41.699Z,3.57
2018-09-08T16:22:10.181Z,3.70
2018-09-08T16:24:38.654Z,3.43
2018-09-08T16:27:07.132Z,4.10
2018-09-08T16:29:35.668Z,3.63
2018-09-08T16:32:04.147Z,3.60
2018-09-08T16:34:32.615Z,3.70
2018-09-08T16:37:01.110Z,3.40
2018-09-08T16:39:29.612Z,3.67
2018-09-08T16:41:58.101Z,3.60
2018-09-08T16:44:26.601Z,3.87
2018-09-08T16:46:55.135Z,3.47
2018-09-08T16:49:23.611Z,3.43
2018-09-08T16:51:52.427Z,3.43
2018-09-08T16:54:20.923Z,3.77
2018-09-08T16:56:49.473Z,3.60
2018-09-08T16:59:17.974Z,3.67
2018-09-08T17:01:46.500Z,3.50
2018-09-08T17:04:14.972Z,3.30
2018-09-08T17:06:43.518Z,3.57
2018-09-08T17:09:11.992Z,3.90
2018-09-08T17:11:40.513Z,3.27
2018-09-08T17:14:08.999Z,3.40
2018-09-08T17:16:37.492Z,3.60
2018-09-08T17:19:05.978Z,3.57
2018-09-08T17:21:34.456Z,3.37
2018-09-08T17:24:02.950Z,3.50
2018-09-08T17:26:31.426Z,3.83
2018-09-08T17:28:59.923Z,3.37
2018-09-08T17:31:28.399Z,3.10
2018-09-08T17:33:56.896Z,3.40
2018-09-08T17:36:25.376Z,3.53
2018-09-08T17:38:53.900Z,3.93
2018-09-08T17:41:22.348Z,3.70
2018-09-08T17:43:51.061Z,3.50
2018-09-08T17:46:19.554Z,3.60
2018-09-08T17:48:48.032Z,3.67
2018-09-08T17:51:16.532Z,2.80
2018-09-08T17:53:45.005Z,3.27
2018-09-08T17:56:13.477Z,3.10
2018-09-08T17:58:41.968Z,3.30
2018-09-08T18:01:10.443Z,3.30
2018-09-08T18:03:38.944Z,3.13
2018-09-08T18:06:07.421Z,3.73
2018-09-08T18:08:35.930Z,4.17
2018-09-08T18:11:04.416Z,3.87
2018-09-08T18:13:32.890Z,3.27
2018-09-08T18:16:01.367Z,3.80
2018-09-08T18:18:29.834Z,3.60
2018-09-08T18:20:58.319Z,3.33
2018-09-08T18:23:26.819Z,3.63
2018-09-08T18:25:55.296Z,3.67
2018-09-08T18:28:23.824Z,3.80
2018-09-08T18:30:52.313Z,3.43
2018-09-08T18:33:20.793Z,3.80
2018-09-08T18:35:51.494Z,3.20
2018-09-08T18:38:19.995Z,3.90
2018-09-08T18:40:48.498Z,3.50
2018-09-08T18:43:17.023Z,3.40
2018-09-08T18:45:45.521Z,3.07
2018-09-08T18:48:14.085Z,3.30
2018-09-08T18:50:42.556Z,3.60
2018-09-08T18:53:11.072Z,3.17
2018-09-08T18:55:39.604Z,3.13
2018-09-08T18:58:08.651Z,3.47
2018-09-08T19:00:37.165Z,3.17
2018-09-08T19:03:05.750Z,3.43
2018-09-08T19:05:34.254Z,3.10
2018-09-08T19:08:02.791Z,3.47
2018-09-08T19:10:35.143Z,3.23
2018-09-08T19:13:04.306Z,3.77
2018-09-08T19:15:32.809Z,3.37
2018-09-08T19:18:01.299Z,3.50
2018-09-08T19:20:35.078Z,3.20
2018-09-08T19:23:03.573Z,3.33
2018-09-08T19:25:32.060Z,3.30
2018-09-08T19:28:00.543Z,3.20
2018-09-08T19:30:29.036Z,3.23
2018-09-08T19:32:57.500Z,3.10
2018-09-08T19:35:31.156Z,3.40
2018-09-08T19:37:59.650Z,3.43
2018-09-08T19:40:33.309Z,3.40
2018-09-08T19:43:01.799Z,3.47
2018-09-08T19:45:30.331Z,3.27
2018-09-08T19:48:03.950Z,3.57
2018-09-08T19:50:32.794Z,3.10
2018-09-08T19:53:06.472Z,3.17
2018-09-08T19:55:34.954Z,3.30
2018-09-08T19:58:08.790Z,3.20
2018-09-08T20:00:37.323Z,3.60
2018-09-08T20:03:06.003Z,3.07
2018-09-08T20:05:34.513Z,3.90
2018-09-08T20:08:03.697Z,3.90
2018-09-08T20:10:32.230Z,3.73
2018-09-08T20:13:01.721Z,3.27
2018-09-08T20:15:30.321Z,3.80
2018-09-08T20:17:58.954Z,4.03
2018-09-08T20:20:28.538Z,3.63
2018-09-08T20:22:57.242Z,4.13
2018-09-08T20:25:25.856Z,3.60
2018-09-08T20:27:56.103Z,3.43
2018-09-08T20:30:24.683Z,3.60
2018-09-08T20:32:53.163Z,3.50
2018-09-08T20:35:21.718Z,3.40
2018-09-08T20:37:50.310Z,3.70
2018-09-08T20:40:18.895Z,3.73
2018-09-08T20:42:47.493Z,3.60
2018-09-08T20:45:16.064Z,3.70
2018-09-08T20:47:45.497Z,3.40
2018-09-08T20:50:14.115Z,3.40
2018-09-08T20:52:42.688Z,3.20
2018-09-08T20:55:11.312Z,3.93
2018-09-08T20:57:39.853Z,3.27
2018-09-08T21:00:08.373Z,3.20
2018-09-08T21:02:37.060Z,3.17
2018-09-08T21:05:05.790Z,3.43
2018-09-08T21:07:34.369Z,3.13
2018-09-08T21:10:02.862Z,3.20
2018-09-08T21:12:31.420Z,3.33
2018-09-08T21:14:59.983Z,3.80
2018-09-08T21:17:28.523Z,3.33
2018-09-08T21:19:57.107Z,3.70
2018-09-08T21:22:25.781Z,3.33
2018-09-08T21:24:54.357Z,3.20
2018-09-08T21:27:22.934Z,3.77
2018-09-08T21:29:51.517Z,3.37
2018-09-08T21:32:20.097Z,3.00
2018-09-08T21:34:48.667Z,3.10
2018-09-08T21:37:20.031Z,3.33
2018-09-08T21:39:48.571Z,3.67
2018-09-08T21:42:17.086Z,3.33
2018-09-08T21:44:45.628Z,3.27
2018-09-08T21:47:14.162Z,3.47
2018-09-08T21:49:42.853Z,3.30
2018-09-08T21:52:11.424Z,3.33
2018-09-08T21:54:39.945Z,3.13
2018-09-08T21:57:08.551Z,3.03
2018-09-08T21:59:37.031Z,3.50
2018-09-08T22:02:05.595Z,3.17
2018-09-08T22:04:34.091Z,3.47
2018-09-08T22:07:02.642Z,3.47
2018-09-08T22:09:31.178Z,3.60
2018-09-08T22:11:59.712Z,3.10
2018-09-08T22:14:28.227Z,2.80
2018-09-08T22:16:56.778Z,3.27
2018-09-08T22:19:25.313Z,3.33
2018-09-08T22:21:53.865Z,3.60
2018-09-08T22:24:22.400Z,3.20
2018-09-08T22:26:50.944Z,3.40
2018-09-08T22:29:19.494Z,3.20
2018-09-08T22:31:48.071Z,3.10
2018-09-08T22:34:16.622Z,3.67
2018-09-08T22:36:45.203Z,3.30
2018-09-08T22:39:13.771Z,3.07
2018-09-08T22:41:43.116Z,3.23
2018-09-08T22:44:11.691Z,3.30
2018-09-08T22:46:40.241Z,3.43
2018-09-08T22:49:08.844Z,3.33
2018-09-08T22:51:37.386Z,3.40
2018-09-08T22:54:12.207Z,3.13
2018-09-08T22:56:40.783Z,3.30
2018-09-08T22:59:09.339Z,3.17
2018-09-08T23:01:37.918Z,3.30
2018-09-08T23:04:06.489Z,3.67
2018-09-08T23:06:35.037Z,3.13
2018-09-08T23:09:03.746Z,3.47
2018-09-08T23:11:32.326Z,3.70
2018-09-08T23:14:00.867Z,3.30
2018-09-08T23:16:29.409Z,3.33
2018-09-08T23:18:57.967Z,3.27
2018-09-08T23:21:26.531Z,3.00
2018-09-08T23:23:55.047Z,3.30
2018-09-08T23:26:23.627Z,3.20
2018-09-08T23:28:52.227Z,3.30
2018-09-08T23:31:20.800Z,3.07
2018-09-08T23:33:49.359Z,3.10
2018-09-08T23:36:17.862Z,2.80
2018-09-08T23:38:46.472Z,3.60
2018-09-08T23:41:15.023Z,3.20
2018-09-08T23:43:43.610Z,3.30
2018-09-08T23:46:12.827Z,3.00
2018-09-08T23:48:41.365Z,3.00
2018-09-08T23:51:10.004Z,3.30
2018-09-08T23:53:38.539Z,3.37
2018-09-08T23:56:07.066Z,3.10
2018-09-08T23:58:35.630Z,3.20
